AIB9E SAZY-SAZM
Flight info
| Callsign | AIB9E |
|---|---|
| Flight time | N/A |
| Altitude | 39000 |
| Route | CHP UW32 SIGUL DCT SIRAN SIRAN2U |
| Aircraft | A320/M-SDE3FGHIRWY/LB1 |
Departure
| Time | N/A |
|---|---|
| Airport | Aviador C. Campos Airport (SAZY) |
Arrival
| Time | 2026-04-26 21:26 |
|---|---|
| Airport | Ástor Piazzola International Airport (SAZM) |
| Time | Latitude | Longitude | Altitude | Speed | Heading |
|---|---|---|---|---|---|
| 2026-04-26 20:35 | -38.83609 | -64.26836 | 39174 ft | 482 kts | 92° |
| 2026-04-26 20:36 | -38.83212 | -64.18237 | 39166 ft | 483 kts | 92° |
| 2026-04-26 20:36 | -38.82811 | -64.09686 | 39164 ft | 483 kts | 92° |
| 2026-04-26 20:37 | -38.82400 | -64.01083 | 39153 ft | 484 kts | 92° |
| 2026-04-26 20:37 | -38.81987 | -63.92459 | 39146 ft | 484 kts | 92° |
| 2026-04-26 20:38 | -38.81566 | -63.83833 | 39131 ft | 485 kts | 92° |
| 2026-04-26 20:38 | -38.81132 | -63.75192 | 39140 ft | 486 kts | 92° |
| 2026-04-26 20:39 | -38.80682 | -63.66519 | 39136 ft | 487 kts | 92° |
| 2026-04-26 20:39 | -38.80229 | -63.57841 | 39128 ft | 488 kts | 92° |
| 2026-04-26 20:40 | -38.79774 | -63.49159 | 39124 ft | 488 kts | 92° |
| 2026-04-26 20:40 | -38.79315 | -63.40457 | 39118 ft | 489 kts | 92° |
| 2026-04-26 20:41 | -38.78845 | -63.31751 | 39109 ft | 490 kts | 91° |
| 2026-04-26 20:41 | -38.78368 | -63.23034 | 39105 ft | 490 kts | 91° |
| 2026-04-26 20:42 | -38.77898 | -63.14379 | 39098 ft | 490 kts | 91° |
| 2026-04-26 20:42 | -38.77404 | -63.05651 | 39097 ft | 491 kts | 91° |
| 2026-04-26 20:43 | -38.76699 | -62.96926 | 39092 ft | 494 kts | 86° |
| 2026-04-26 20:43 | -38.75558 | -62.88161 | 39086 ft | 495 kts | 84° |
| 2026-04-26 20:44 | -38.74352 | -62.79478 | 39084 ft | 495 kts | 85° |
| 2026-04-26 20:44 | -38.73243 | -62.70813 | 39075 ft | 495 kts | 86° |
| 2026-04-26 20:45 | -38.72186 | -62.62102 | 39066 ft | 495 kts | 86° |
| 2026-04-26 20:45 | -38.71120 | -62.53383 | 39048 ft | 495 kts | 86° |
| 2026-04-26 20:46 | -38.70029 | -62.44683 | 39031 ft | 495 kts | 85° |
| 2026-04-26 20:46 | -38.68915 | -62.35949 | 39018 ft | 495 kts | 85° |
| 2026-04-26 20:47 | -38.67807 | -62.27296 | 39009 ft | 495 kts | 85° |
| 2026-04-26 20:47 | -38.66695 | -62.18591 | 39000 ft | 495 kts | 85° |
| 2026-04-26 20:48 | -38.65578 | -62.09890 | 39003 ft | 495 kts | 85° |
| 2026-04-26 20:48 | -38.64451 | -62.01177 | 39007 ft | 495 kts | 85° |
| 2026-04-26 20:49 | -38.63298 | -61.92338 | 39006 ft | 496 kts | 85° |
| 2026-04-26 20:49 | -38.62160 | -61.83686 | 39010 ft | 497 kts | 84° |
| 2026-04-26 20:50 | -38.61006 | -61.74975 | 39009 ft | 497 kts | 84° |
| 2026-04-26 20:50 | -38.59851 | -61.66254 | 38999 ft | 497 kts | 84° |
| 2026-04-26 20:51 | -38.58682 | -61.57509 | 38990 ft | 497 kts | 84° |
| 2026-04-26 20:51 | -38.57503 | -61.48782 | 38982 ft | 497 kts | 84° |
| 2026-04-26 20:52 | -38.56327 | -61.40082 | 38971 ft | 497 kts | 84° |
| 2026-04-26 20:52 | -38.55141 | -61.31392 | 38964 ft | 497 kts | 84° |
| 2026-04-26 20:53 | -38.53947 | -61.22671 | 38955 ft | 498 kts | 84° |
| 2026-04-26 20:53 | -38.52755 | -61.13939 | 38932 ft | 500 kts | 84° |
| 2026-04-26 20:54 | -38.51549 | -61.05155 | 38919 ft | 509 kts | 83° |
| 2026-04-26 20:54 | -38.50296 | -60.96170 | 38914 ft | 518 kts | 83° |
| 2026-04-26 20:55 | -38.49220 | -60.88544 | 38904 ft | 522 kts | 83° |
| 2026-04-26 20:55 | -38.47921 | -60.79386 | 38889 ft | 523 kts | 83° |
| 2026-04-26 20:56 | -38.46628 | -60.70244 | 38891 ft | 523 kts | 83° |
| 2026-04-26 20:56 | -38.45339 | -60.61114 | 38893 ft | 524 kts | 83° |
| 2026-04-26 20:57 | -38.44028 | -60.51935 | 38890 ft | 525 kts | 83° |
| 2026-04-26 20:57 | -38.42715 | -60.42824 | 38891 ft | 525 kts | 82° |
| 2026-04-26 20:58 | -38.41381 | -60.33647 | 38882 ft | 526 kts | 82° |
| 2026-04-26 20:58 | -38.40032 | -60.24410 | 38876 ft | 526 kts | 82° |
| 2026-04-26 20:59 | -38.38692 | -60.15296 | 38871 ft | 526 kts | 82° |
| 2026-04-26 20:59 | -38.37780 | -60.10786 | 38857 ft | 528 kts | 69° |
| 2026-04-26 20:59 | -38.36066 | -60.06573 | 38471 ft | 526 kts | 54° |
| 2026-04-26 20:59 | -38.33650 | -60.03105 | 37766 ft | 522 kts | 38° |
| 2026-04-26 21:00 | -38.30648 | -60.00574 | 37204 ft | 511 kts | 21° |
| 2026-04-26 21:00 | -38.27342 | -59.99195 | 36910 ft | 492 kts | 5° |
| 2026-04-26 21:00 | -38.23983 | -59.98880 | 36472 ft | 478 kts | 354° |
| 2026-04-26 21:00 | -38.20665 | -59.98642 | 35978 ft | 480 kts | 6° |
| 2026-04-26 21:01 | -38.17465 | -59.97386 | 35520 ft | 485 kts | 22° |
| 2026-04-26 21:01 | -38.14629 | -59.95105 | 35063 ft | 485 kts | 39° |
| 2026-04-26 21:01 | -38.12340 | -59.91953 | 34567 ft | 483 kts | 56° |
| 2026-04-26 21:01 | -38.10791 | -59.88220 | 34083 ft | 478 kts | 73° |
| 2026-04-26 21:02 | -38.10048 | -59.84156 | 33584 ft | 468 kts | 89° |
| 2026-04-26 21:02 | -38.09918 | -59.80066 | 33234 ft | 462 kts | 92° |
| 2026-04-26 21:02 | -38.09823 | -59.75993 | 32969 ft | 461 kts | 92° |
| 2026-04-26 21:02 | -38.09718 | -59.71939 | 32701 ft | 458 kts | 92° |
| 2026-04-26 21:03 | -38.09607 | -59.67900 | 32439 ft | 455 kts | 92° |
| 2026-04-26 21:03 | -38.09494 | -59.63896 | 32173 ft | 453 kts | 92° |
| 2026-04-26 21:03 | -38.09383 | -59.59915 | 31915 ft | 450 kts | 92° |
| 2026-04-26 21:03 | -38.09273 | -59.55970 | 31662 ft | 447 kts | 92° |
| 2026-04-26 21:04 | -38.09163 | -59.52027 | 31401 ft | 444 kts | 92° |
| 2026-04-26 21:04 | -38.09054 | -59.48121 | 31166 ft | 441 kts | 91° |
| 2026-04-26 21:04 | -38.08944 | -59.44240 | 30912 ft | 439 kts | 91° |
| 2026-04-26 21:04 | -38.08835 | -59.40428 | 30609 ft | 434 kts | 91° |
| 2026-04-26 21:05 | -38.08723 | -59.36556 | 30102 ft | 432 kts | 91° |
| 2026-04-26 21:05 | -38.08616 | -59.32827 | 29568 ft | 429 kts | 91° |
| 2026-04-26 21:05 | -38.08503 | -59.29010 | 29084 ft | 424 kts | 91° |
| 2026-04-26 21:05 | -38.08393 | -59.25291 | 28618 ft | 418 kts | 91° |
| 2026-04-26 21:06 | -38.08284 | -59.21606 | 28157 ft | 413 kts | 91° |
| 2026-04-26 21:06 | -38.08178 | -59.18035 | 27716 ft | 408 kts | 91° |
| 2026-04-26 21:06 | -38.08090 | -59.14455 | 27270 ft | 403 kts | 93° |
| 2026-04-26 21:06 | -38.08096 | -59.10924 | 26845 ft | 398 kts | 95° |
| 2026-04-26 21:07 | -38.08172 | -59.07420 | 26417 ft | 394 kts | 96° |
| 2026-04-26 21:07 | -38.08282 | -59.03962 | 25992 ft | 390 kts | 97° |
| 2026-04-26 21:07 | -38.08398 | -59.00544 | 25582 ft | 386 kts | 97° |
| 2026-04-26 21:07 | -38.08507 | -58.97147 | 25169 ft | 383 kts | 97° |
| 2026-04-26 21:08 | -38.08600 | -58.93785 | 24766 ft | 379 kts | 96° |
| 2026-04-26 21:08 | -38.08680 | -58.90447 | 24365 ft | 376 kts | 96° |
| 2026-04-26 21:08 | -38.08751 | -58.87142 | 23973 ft | 372 kts | 96° |
| 2026-04-26 21:08 | -38.08818 | -58.83884 | 23589 ft | 369 kts | 96° |
| 2026-04-26 21:09 | -38.08884 | -58.80635 | 23191 ft | 366 kts | 96° |
| 2026-04-26 21:09 | -38.08946 | -58.77420 | 22732 ft | 363 kts | 96° |
| 2026-04-26 21:09 | -38.09008 | -58.74225 | 22283 ft | 361 kts | 96° |
| 2026-04-26 21:09 | -38.09070 | -58.71040 | 21837 ft | 358 kts | 96° |
| 2026-04-26 21:10 | -38.09132 | -58.67883 | 21399 ft | 356 kts | 96° |
| 2026-04-26 21:10 | -38.09193 | -58.64750 | 20960 ft | 354 kts | 96° |
| 2026-04-26 21:10 | -38.09255 | -58.61626 | 20545 ft | 352 kts | 96° |
| 2026-04-26 21:10 | -38.09315 | -58.58542 | 20128 ft | 350 kts | 97° |
| 2026-04-26 21:11 | -38.09373 | -58.55464 | 19715 ft | 348 kts | 97° |
| 2026-04-26 21:11 | -38.09430 | -58.52387 | 19310 ft | 346 kts | 96° |
| 2026-04-26 21:11 | -38.09484 | -58.49348 | 18908 ft | 344 kts | 97° |
| 2026-04-26 21:11 | -38.09539 | -58.46315 | 18569 ft | 341 kts | 97° |
| 2026-04-26 21:12 | -38.09590 | -58.43316 | 18217 ft | 338 kts | 97° |
| 2026-04-26 21:12 | -38.09641 | -58.40333 | 17768 ft | 338 kts | 97° |
| 2026-04-26 21:12 | -38.09692 | -58.37354 | 17325 ft | 337 kts | 97° |
| 2026-04-26 21:12 | -38.09743 | -58.34398 | 16910 ft | 335 kts | 97° |
| 2026-04-26 21:13 | -38.09791 | -58.31440 | 16494 ft | 334 kts | 96° |
| 2026-04-26 21:13 | -38.09839 | -58.28501 | 16094 ft | 333 kts | 96° |
| 2026-04-26 21:13 | -38.09887 | -58.25552 | 15672 ft | 333 kts | 96° |
| 2026-04-26 21:13 | -38.09932 | -58.22612 | 15267 ft | 332 kts | 96° |
| 2026-04-26 21:14 | -38.09978 | -58.19680 | 14860 ft | 332 kts | 96° |
| 2026-04-26 21:14 | -38.10020 | -58.16752 | 14455 ft | 332 kts | 96° |
| 2026-04-26 21:14 | -38.10063 | -58.13814 | 14051 ft | 331 kts | 96° |
| 2026-04-26 21:14 | -38.10107 | -58.10883 | 13646 ft | 331 kts | 96° |
| 2026-04-26 21:15 | -38.10153 | -58.07963 | 13212 ft | 331 kts | 96° |
| 2026-04-26 21:15 | -38.10198 | -58.05039 | 12791 ft | 330 kts | 96° |
| 2026-04-26 21:15 | -38.10240 | -58.02133 | 12381 ft | 328 kts | 96° |
| 2026-04-26 21:15 | -38.10281 | -57.99238 | 11961 ft | 327 kts | 96° |
| 2026-04-26 21:16 | -38.10319 | -57.96353 | 11546 ft | 326 kts | 96° |
| 2026-04-26 21:16 | -38.10356 | -57.93489 | 11125 ft | 325 kts | 96° |
| 2026-04-26 21:16 | -38.10392 | -57.90606 | 10698 ft | 324 kts | 96° |
| 2026-04-26 21:16 | -38.10427 | -57.87755 | 10287 ft | 323 kts | 96° |
| 2026-04-26 21:17 | -38.10460 | -57.84935 | 10147 ft | 312 kts | 96° |
| 2026-04-26 21:17 | -38.10488 | -57.82211 | 9820 ft | 306 kts | 96° |
| 2026-04-26 21:17 | -38.10520 | -57.79521 | 9119 ft | 304 kts | 96° |
| 2026-04-26 21:17 | -38.10554 | -57.76852 | 8544 ft | 297 kts | 96° |
| 2026-04-26 21:18 | -38.10583 | -57.74279 | 8114 ft | 286 kts | 96° |
| 2026-04-26 21:18 | -38.10610 | -57.71791 | 7683 ft | 276 kts | 97° |
| 2026-04-26 21:18 | -38.10640 | -57.69360 | 7291 ft | 274 kts | 97° |
| 2026-04-26 21:18 | -38.10673 | -57.66936 | 6873 ft | 276 kts | 97° |
| 2026-04-26 21:19 | -38.10705 | -57.64493 | 6448 ft | 277 kts | 97° |
| 2026-04-26 21:19 | -38.10734 | -57.62054 | 6013 ft | 277 kts | 97° |
| 2026-04-26 21:19 | -38.10761 | -57.59603 | 5552 ft | 279 kts | 97° |
| 2026-04-26 21:19 | -38.10785 | -57.57134 | 5097 ft | 280 kts | 96° |
| 2026-04-26 21:20 | -38.10811 | -57.54678 | 4643 ft | 282 kts | 96° |
| 2026-04-26 21:20 | -38.10836 | -57.52154 | 4162 ft | 283 kts | 96° |
| 2026-04-26 21:20 | -38.10783 | -57.49671 | 3674 ft | 288 kts | 86° |
| 2026-04-26 21:20 | -38.10172 | -57.47201 | 3244 ft | 293 kts | 64° |
| 2026-04-26 21:21 | -38.09037 | -57.45171 | 3173 ft | 279 kts | 45° |
| 2026-04-26 21:21 | -38.07550 | -57.43666 | 3083 ft | 263 kts | 28° |
| 2026-04-26 21:21 | -38.06025 | -57.42452 | 2967 ft | 253 kts | 28° |
| 2026-04-26 21:21 | -38.04554 | -57.41291 | 2904 ft | 246 kts | 24° |
| 2026-04-26 21:22 | -38.02997 | -57.40782 | 2859 ft | 218 kts | 345° |
| 2026-04-26 21:22 | -38.01715 | -57.41344 | 2774 ft | 180 kts | 311° |
| 2026-04-26 21:22 | -38.00953 | -57.42430 | 2581 ft | 153 kts | 289° |
| 2026-04-26 21:23 | -37.99935 | -57.44419 | 2241 ft | 124 kts | 288° |
| 2026-04-26 21:23 | -37.99477 | -57.45326 | 2079 ft | 120 kts | 288° |
| 2026-04-26 21:23 | -37.99029 | -57.46214 | 1909 ft | 118 kts | 288° |
| 2026-04-26 21:23 | -37.98591 | -57.47081 | 1749 ft | 116 kts | 288° |
| 2026-04-26 21:24 | -37.98160 | -57.47931 | 1588 ft | 113 kts | 289° |
| 2026-04-26 21:24 | -37.97737 | -57.48768 | 1447 ft | 113 kts | 289° |
| 2026-04-26 21:24 | -37.97316 | -57.49604 | 1290 ft | 113 kts | 289° |
| 2026-04-26 21:24 | -37.96893 | -57.50443 | 1135 ft | 113 kts | 290° |
| 2026-04-26 21:25 | -37.96469 | -57.51285 | 990 ft | 115 kts | 290° |
| 2026-04-26 21:25 | -37.96038 | -57.52141 | 834 ft | 116 kts | 291° |
| 2026-04-26 21:25 | -37.95601 | -57.53010 | 684 ft | 118 kts | 295° |
| 2026-04-26 21:25 | -37.95157 | -57.53891 | 527 ft | 120 kts | 296° |
| 2026-04-26 21:26 | -37.94702 | -57.54784 | 392 ft | 121 kts | 298° |
| 2026-04-26 21:26 | -37.94256 | -57.55676 | 200 ft | 122 kts | 297° |
| 2026-04-26 21:26 | -37.93802 | -57.56565 | 63 ft | 114 kts | 298° |
| 2026-04-26 21:26 | -37.93459 | -57.57266 | 51 ft | 48 kts | 302° |
| 2026-04-26 21:27 | -37.93349 | -57.57478 | 50 ft | 39 kts | 303° |
| 2026-04-26 21:27 | -37.93206 | -57.57750 | 52 ft | 36 kts | 303° |
| 2026-04-26 21:27 | -37.93163 | -57.57982 | 54 ft | 17 kts | 221° |
| 2026-04-26 21:27 | -37.93230 | -57.58034 | 54 ft | 17 kts | 196° |
| 2026-04-26 21:28 | -37.93286 | -57.58055 | 54 ft | 6 kts | 262° |
| 2026-04-26 21:28 | -37.93269 | -57.58099 | 54 ft | 6 kts | 320° |
| 2026-04-26 21:28 | -37.93261 | -57.58105 | 54 ft | 0 kts | 331° |